createdAt,value
2019-02-28T00:02:15.048Z,60.65
2019-02-28T00:04:47.528Z,61.35
2019-02-28T00:07:20.125Z,59.58
2019-02-28T00:09:52.816Z,62.25
2019-02-28T00:12:25.644Z,59.85
2019-02-28T00:14:58.619Z,62.00
2019-02-28T00:17:32.168Z,59.55
2019-02-28T00:20:04.839Z,59.98
2019-02-28T00:22:37.256Z,64.45
2019-02-28T00:25:11.597Z,65.00
2019-02-28T00:27:44.094Z,63.10
2019-02-28T00:30:17.846Z,60.98
2019-02-28T00:32:50.495Z,62.10
2019-02-28T00:35:23.048Z,62.48
2019-02-28T00:37:56.694Z,59.33
2019-02-28T00:40:29.616Z,64.05
2019-02-28T00:43:02.143Z,61.90
2019-02-28T00:45:37.222Z,58.13
2019-02-28T00:48:08.692Z,61.13
2019-02-28T00:50:41.449Z,62.43
2019-02-28T00:53:13.725Z,60.80
2019-02-28T00:55:47.007Z,62.23
2019-02-28T00:58:19.470Z,68.60
2019-02-28T01:00:52.509Z,63.80
2019-02-28T01:03:27.424Z,66.47
2019-02-28T01:05:59.044Z,70.08
2019-02-28T01:08:31.782Z,69.10
2019-02-28T01:11:04.278Z,69.07
2019-02-28T01:13:36.884Z,67.47
2019-02-28T01:16:09.395Z,68.78
2019-02-28T01:18:41.957Z,71.70
2019-02-28T01:21:14.350Z,65.37
2019-02-28T01:23:46.723Z,68.02
2019-02-28T01:26:19.355Z,66.35
2019-02-28T01:28:51.839Z,66.53
2019-02-28T01:31:24.355Z,66.87
2019-02-28T01:33:58.759Z,66.53
2019-02-28T01:36:30.838Z,71.15
2019-02-28T01:39:03.166Z,74.62
2019-02-28T01:41:36.971Z,73.40
2019-02-28T01:44:09.500Z,75.28
2019-02-28T01:46:41.843Z,77.75
2019-02-28T01:49:14.279Z,78.85
2019-02-28T01:51:46.813Z,76.10
2019-02-28T01:54:19.581Z,76.00
2019-02-28T01:56:51.852Z,73.10
2019-02-28T01:59:24.489Z,74.60
2019-02-28T02:01:57.076Z,73.35
2019-02-28T02:04:30.211Z,71.28
2019-02-28T02:07:02.965Z,71.67
2019-02-28T02:09:35.784Z,67.45
2019-02-28T02:12:08.343Z,71.02
2019-02-28T02:14:44.528Z,71.60
2019-02-28T02:17:14.487Z,71.85
2019-02-28T02:19:49.342Z,70.12
2019-02-28T02:22:20.806Z,70.22
2019-02-28T02:24:53.218Z,67.72
2019-02-28T02:27:25.511Z,70.15
2019-02-28T02:29:58.141Z,70.22
2019-02-28T02:32:37.507Z,67.85
2019-02-28T02:35:08.563Z,67.70
2019-02-28T02:37:41.484Z,63.80
2019-02-28T02:40:16.647Z,62.62
2019-02-28T02:42:50.126Z,61.05
2019-02-28T02:45:22.850Z,64.42
2019-02-28T02:47:55.611Z,61.70
2019-02-28T02:50:34.021Z,62.40
2019-02-28T02:53:05.578Z,60.52
2019-02-28T02:55:35.741Z,60.58
2019-02-28T02:58:08.605Z,61.48
2019-02-28T03:00:41.049Z,62.10
2019-02-28T03:03:13.796Z,62.23
2019-02-28T03:05:46.184Z,63.25
2019-02-28T03:08:18.739Z,60.43
2019-02-28T03:10:52.973Z,65.15
2019-02-28T03:13:25.507Z,62.03
2019-02-28T03:15:59.292Z,60.92
2019-02-28T03:18:31.936Z,60.65
2019-02-28T03:21:04.436Z,62.03
2019-02-28T03:23:39.818Z,62.38
2019-02-28T03:26:11.125Z,60.17
2019-02-28T03:28:43.528Z,60.20
2019-02-28T03:31:16.060Z,59.10
2019-02-28T03:33:49.647Z,60.15
2019-02-28T03:36:22.421Z,62.43
2019-02-28T03:38:54.921Z,59.40
2019-02-28T03:41:27.483Z,57.75
2019-02-28T03:44:00.059Z,56.60
2019-02-28T03:46:32.399Z,58.83
2019-02-28T03:49:10.955Z,59.73
2019-02-28T03:51:38.933Z,56.90
2019-02-28T03:54:11.315Z,57.78
2019-02-28T03:56:51.357Z,58.00
2019-02-28T03:59:18.959Z,56.85
2019-02-28T04:01:51.673Z,57.83
2019-02-28T04:04:24.282Z,54.83
2019-02-28T04:06:56.940Z,56.58
2019-02-28T04:09:29.578Z,55.55
2019-02-28T04:12:06.979Z,58.00
2019-02-28T04:14:35.797Z,57.88
2019-02-28T04:17:09.897Z,54.35
2019-02-28T04:19:42.377Z,56.15
2019-02-28T04:22:14.922Z,56.68
2019-02-28T04:24:47.736Z,54.73
2019-02-28T04:27:23.093Z,54.53
2019-02-28T04:29:55.356Z,56.02
2019-02-28T04:32:28.087Z,55.73
2019-02-28T04:35:00.497Z,56.80
2019-02-28T04:37:33.754Z,56.50
2019-02-28T04:40:08.239Z,56.15
2019-02-28T04:42:40.990Z,55.17
2019-02-28T04:45:15.366Z,59.08
2019-02-28T04:47:48.504Z,55.90
2019-02-28T04:50:20.884Z,56.08
2019-02-28T04:52:53.294Z,58.63
2019-02-28T04:55:25.670Z,52.78
2019-02-28T04:57:57.928Z,54.10
2019-02-28T05:00:30.624Z,56.33
2019-02-28T05:03:03.143Z,52.78
2019-02-28T05:05:35.473Z,52.23
2019-02-28T05:08:07.771Z,54.13
2019-02-28T05:10:40.568Z,53.13
2019-02-28T05:13:14.301Z,54.45
2019-02-28T05:15:47.162Z,53.63
2019-02-28T05:18:19.657Z,53.85
2019-02-28T05:20:52.331Z,54.50
2019-02-28T05:23:24.562Z,53.87
2019-02-28T05:25:56.957Z,54.18
2019-02-28T05:28:29.521Z,53.52
2019-02-28T05:31:02.081Z,53.45
2019-02-28T05:33:35.199Z,53.95
2019-02-28T05:36:07.676Z,55.08
2019-02-28T05:38:40.279Z,56.05
2019-02-28T05:41:15.382Z,55.23
2019-02-28T05:43:46.521Z,55.55
2019-02-28T05:46:20.360Z,54.08
2019-02-28T05:48:53.563Z,51.85
2019-02-28T05:51:26.069Z,52.17
2019-02-28T05:53:58.271Z,50.60
2019-02-28T05:56:33.130Z,52.62
2019-02-28T05:59:04.396Z,56.45
2019-02-28T06:01:36.835Z,55.45
2019-02-28T06:04:09.465Z,55.55
2019-02-28T06:06:41.959Z,56.13
2019-02-28T06:09:14.810Z,55.58
2019-02-28T06:11:47.066Z,56.45
2019-02-28T06:14:19.622Z,55.70
2019-02-28T06:16:52.439Z,57.10
2019-02-28T06:19:24.741Z,56.05
2019-02-28T06:21:59.519Z,56.05
2019-02-28T06:24:31.112Z,56.63
2019-02-28T06:27:06.324Z,56.37
2019-02-28T06:29:37.801Z,54.90
2019-02-28T06:32:10.256Z,53.87
2019-02-28T06:34:43.074Z,52.75
2019-02-28T06:37:15.908Z,53.98
2019-02-28T06:39:48.687Z,52.80
2019-02-28T06:42:21.047Z,53.05
2019-02-28T06:44:53.340Z,53.45
2019-02-28T06:47:26.038Z,54.03
2019-02-28T06:49:58.679Z,55.33
2019-02-28T06:52:31.096Z,55.67
2019-02-28T06:55:03.587Z,55.60
2019-02-28T06:57:36.037Z,53.95
2019-02-28T07:00:13.329Z,53.10
2019-02-28T07:02:44.536Z,52.15
2019-02-28T07:05:17.625Z,52.03
2019-02-28T07:07:50.346Z,52.65
2019-02-28T07:10:22.794Z,51.90
2019-02-28T07:12:55.192Z,52.38
2019-02-28T07:15:27.669Z,53.63
2019-02-28T07:18:00.403Z,51.90
2019-02-28T07:20:35.077Z,51.95
2019-02-28T07:23:08.259Z,50.65
2019-02-28T07:25:40.655Z,51.73
2019-02-28T07:28:13.058Z,50.25
2019-02-28T07:30:46.103Z,53.28
2019-02-28T07:33:18.674Z,51.60
2019-02-28T07:35:51.026Z,51.42
2019-02-28T07:38:25.641Z,50.88
2019-02-28T07:40:57.255Z,49.23
2019-02-28T07:43:29.930Z,49.83
2019-02-28T07:46:04.522Z,50.33
2019-02-28T07:48:36.099Z,52.95
2019-02-28T07:51:08.633Z,51.68
2019-02-28T07:53:41.980Z,50.73
2019-02-28T07:56:14.380Z,49.98
2019-02-28T07:58:46.795Z,49.55
2019-02-28T08:01:31.811Z,51.35
2019-02-28T08:04:04.310Z,50.65
2019-02-28T08:06:39.202Z,50.43
2019-02-28T08:09:23.759Z,48.63
2019-02-28T08:11:56.742Z,50.17
2019-02-28T08:14:29.726Z,52.00
2019-02-28T08:17:05.406Z,51.77
2019-02-28T08:19:36.336Z,50.58
2019-02-28T08:22:08.689Z,52.27
2019-02-28T08:24:41.145Z,50.92
2019-02-28T08:27:13.261Z,50.98
2019-02-28T08:29:46.213Z,50.20
2019-02-28T08:32:18.890Z,51.37
2019-02-28T08:34:51.354Z,51.85
2019-02-28T08:37:36.195Z,48.38
2019-02-28T08:40:12.580Z,49.60
2019-02-28T08:42:45.118Z,48.05
2019-02-28T08:45:18.276Z,52.05
2019-02-28T08:47:55.283Z,50.08
2019-02-28T08:50:26.255Z,48.52
2019-02-28T08:53:01.391Z,48.65
2019-02-28T08:55:33.751Z,48.20
2019-02-28T08:58:06.781Z,49.42
2019-02-28T09:00:58.353Z,49.15
2019-02-28T09:03:30.985Z,50.67
2019-02-28T09:06:04.189Z,49.77
2019-02-28T09:08:37.180Z,49.85
2019-02-28T09:11:11.109Z,50.00
2019-02-28T09:13:44.791Z,48.50
2019-02-28T09:16:18.260Z,49.60
2019-02-28T09:18:50.867Z,47.35
2019-02-28T09:21:23.349Z,49.42
2019-02-28T09:24:09.472Z,49.05
2019-02-28T09:26:42.260Z,49.10
2019-02-28T09:29:15.160Z,49.80
2019-02-28T09:31:47.598Z,50.35
2019-02-28T09:34:20.767Z,50.65
2019-02-28T09:36:56.661Z,49.95
2019-02-28T09:39:28.016Z,49.83
2019-02-28T09:42:00.440Z,51.30
2019-02-28T09:44:33.274Z,51.90
2019-02-28T09:47:06.656Z,50.55
2019-02-28T09:49:38.960Z,50.88
2019-02-28T09:52:11.171Z,48.78
2019-02-28T09:54:44.213Z,50.73
2019-02-28T09:57:18.998Z,50.92
2019-02-28T09:59:50.289Z,49.53
2019-02-28T10:02:23.482Z,50.28
2019-02-28T10:04:55.644Z,52.38
2019-02-28T10:07:28.103Z,52.50
2019-02-28T10:10:01.376Z,49.65
2019-02-28T10:12:34.477Z,51.18
2019-02-28T10:15:09.069Z,51.73
2019-02-28T10:17:54.904Z,52.15
2019-02-28T10:20:29.666Z,53.15
2019-02-28T10:23:15.121Z,52.53
2019-02-28T10:25:47.869Z,49.90
2019-02-28T10:28:20.555Z,50.92
2019-02-28T10:30:52.977Z,53.70
2019-02-28T10:33:25.529Z,53.17
2019-02-28T10:35:58.362Z,52.08
2019-02-28T10:38:33.050Z,53.23
2019-02-28T10:41:04.550Z,53.38
2019-02-28T10:43:37.202Z,55.33
2019-02-28T10:46:09.831Z,55.15
2019-02-28T10:48:50.761Z,56.35
2019-02-28T10:51:16.540Z,61.75
2019-02-28T10:53:49.035Z,64.67
2019-02-28T10:56:21.424Z,56.13
2019-02-28T10:58:54.472Z,56.90
2019-02-28T11:01:26.955Z,63.52
2019-02-28T11:04:00.328Z,60.75
2019-02-28T11:06:34.186Z,58.63
2019-02-28T11:09:06.987Z,56.88
2019-02-28T11:11:42.446Z,56.50
2019-02-28T11:14:13.113Z,57.15
2019-02-28T11:16:45.885Z,55.83
2019-02-28T11:19:19.471Z,57.90
2019-02-28T11:21:52.365Z,56.28
2019-02-28T11:24:27.070Z,58.60
2019-02-28T11:26:59.585Z,59.77
2019-02-28T11:29:35.147Z,62.53
2019-02-28T11:32:05.995Z,68.40
2019-02-28T11:34:38.564Z,70.75
2019-02-28T11:37:12.750Z,66.07
2019-02-28T11:39:44.839Z,65.12
2019-02-28T11:42:17.217Z,65.65
2019-02-28T11:44:49.961Z,88.25
2019-02-28T11:47:23.327Z,85.38
2019-02-28T11:49:56.210Z,77.72
2019-02-28T11:52:28.500Z,77.37
2019-02-28T11:55:01.147Z,84.28
2019-02-28T11:57:33.923Z,79.55
2019-02-28T12:00:08.689Z,72.65
2019-02-28T12:02:41.666Z,73.83
2019-02-28T12:05:15.618Z,75.08
2019-02-28T12:07:47.904Z,80.07
2019-02-28T12:10:20.534Z,76.80
2019-02-28T12:12:53.039Z,76.45
2019-02-28T12:15:28.420Z,79.03
2019-02-28T12:18:04.757Z,91.20
2019-02-28T12:20:34.976Z,101.38
2019-02-28T12:23:08.294Z,92.88
2019-02-28T12:25:42.790Z,84.95
2019-02-28T12:28:14.664Z,80.50
2019-02-28T12:30:47.576Z,79.75
2019-02-28T12:33:23.200Z,79.53
2019-02-28T12:35:54.769Z,78.55
2019-02-28T12:38:29.154Z,73.62
2019-02-28T12:41:01.258Z,74.32
2019-02-28T12:43:33.588Z,75.78
2019-02-28T12:46:06.265Z,85.35
2019-02-28T12:48:38.858Z,83.45
2019-02-28T12:51:11.438Z,85.25
2019-02-28T12:53:44.017Z,86.57
2019-02-28T12:56:16.758Z,85.72
2019-02-28T12:58:49.112Z,86.57
2019-02-28T13:01:22.476Z,85.50
2019-02-28T13:04:00.317Z,90.28
2019-02-28T13:06:29.490Z,85.67
2019-02-28T13:09:02.138Z,85.05
2019-02-28T13:11:36.562Z,87.22
2019-02-28T13:14:08.762Z,81.40
2019-02-28T13:16:41.229Z,93.60
2019-02-28T13:19:16.459Z,80.10
2019-02-28T13:21:47.870Z,88.97
2019-02-28T13:24:20.239Z,78.95
2019-02-28T13:26:53.993Z,80.35
2019-02-28T13:29:28.831Z,76.60
2019-02-28T13:32:01.420Z,76.92
2019-02-28T13:34:34.818Z,78.25
2019-02-28T13:37:07.161Z,75.80
2019-02-28T13:39:39.940Z,79.97
2019-02-28T13:42:12.225Z,89.22
2019-02-28T13:44:44.636Z,85.35
2019-02-28T13:47:17.406Z,87.92
2019-02-28T13:49:50.613Z,86.72
2019-02-28T13:52:23.453Z,81.70
2019-02-28T13:54:55.756Z,82.42
2019-02-28T13:57:28.621Z,86.65
2019-02-28T14:00:01.064Z,83.55
2019-02-28T14:02:34.012Z,84.65
2019-02-28T14:05:08.036Z,82.97
2019-02-28T14:07:40.734Z,81.47
2019-02-28T14:10:15.200Z,83.85
2019-02-28T14:12:48.045Z,82.82
2019-02-28T14:15:24.947Z,81.15
2019-02-28T14:17:57.056Z,82.92
2019-02-28T14:20:30.021Z,82.05
2019-02-28T14:23:02.677Z,81.42
2019-02-28T14:25:36.358Z,83.75
2019-02-28T14:28:09.694Z,81.53
2019-02-28T14:30:42.796Z,83.62
2019-02-28T14:33:19.184Z,81.85
2019-02-28T14:35:50.453Z,82.12
2019-02-28T14:38:23.592Z,81.45
2019-02-28T14:40:56.072Z,80.90
2019-02-28T14:43:29.073Z,81.20
2019-02-28T14:46:02.312Z,80.47
2019-02-28T14:48:36.598Z,85.97
2019-02-28T14:51:09.372Z,108.25
2019-02-28T14:53:42.071Z,105.15
2019-02-28T14:56:14.717Z,89.85
2019-02-28T14:58:47.214Z,84.60
2019-02-28T15:01:20.584Z,79.87
2019-02-28T15:03:56.285Z,86.78
2019-02-28T15:06:29.590Z,81.08
2019-02-28T15:09:03.180Z,81.22
2019-02-28T15:11:37.804Z,84.25
2019-02-28T15:14:10.461Z,83.80
2019-02-28T15:16:43.240Z,82.17
2019-02-28T15:19:15.963Z,84.15
2019-02-28T15:21:48.933Z,83.37
2019-02-28T15:24:21.934Z,83.17
2019-02-28T15:26:55.026Z,83.55
2019-02-28T15:29:27.771Z,84.62
2019-02-28T15:32:00.466Z,82.72
2019-02-28T15:34:33.325Z,84.72
2019-02-28T15:37:06.454Z,85.60
2019-02-28T15:39:40.132Z,86.37
2019-02-28T15:42:13.369Z,86.50
2019-02-28T15:45:00.315Z,88.65
2019-02-28T15:47:33.490Z,85.28
2019-02-28T15:50:08.467Z,88.33
2019-02-28T15:52:41.181Z,86.47
2019-02-28T15:55:26.523Z,87.33
2019-02-28T15:57:59.247Z,90.05
2019-02-28T16:00:33.583Z,88.12
2019-02-28T16:03:06.503Z,87.92
2019-02-28T16:05:42.987Z,90.20
2019-02-28T16:08:13.305Z,86.42
2019-02-28T16:10:53.347Z,85.70
2019-02-28T16:13:22.740Z,88.22
2019-02-28T16:15:53.689Z,90.95
2019-02-28T16:18:26.344Z,91.72
2019-02-28T16:20:58.657Z,93.07
2019-02-28T16:23:31.602Z,91.35
2019-02-28T16:26:04.366Z,94.50
2019-02-28T16:28:39.539Z,92.17
2019-02-28T16:31:10.663Z,92.08
2019-02-28T16:33:43.097Z,91.63
2019-02-28T16:36:15.960Z,91.05
2019-02-28T16:38:48.883Z,91.37
2019-02-28T16:41:22.511Z,96.70
2019-02-28T16:43:57.165Z,93.67
2019-02-28T16:46:30.249Z,94.05
2019-02-28T16:49:03.004Z,93.15
2019-02-28T16:51:35.910Z,92.27
2019-02-28T16:54:09.126Z,92.12
2019-02-28T16:56:41.564Z,93.80
2019-02-28T16:59:14.015Z,96.55
2019-02-28T17:01:46.414Z,98.25
2019-02-28T17:04:18.712Z,101.92
2019-02-28T17:06:51.238Z,101.10
2019-02-28T17:09:26.702Z,105.25
2019-02-28T17:12:00.799Z,107.52
2019-02-28T17:14:34.761Z,101.22
2019-02-28T17:17:11.892Z,91.82
2019-02-28T17:19:42.706Z,92.95
2019-02-28T17:22:15.668Z,94.15
2019-02-28T17:24:48.189Z,93.33
2019-02-28T17:27:22.049Z,96.02
2019-02-28T17:29:57.629Z,93.30
2019-02-28T17:32:31.338Z,89.13
2019-02-28T17:35:03.535Z,90.75
2019-02-28T17:37:36.039Z,92.05
2019-02-28T17:40:10.604Z,94.28
2019-02-28T17:42:46.415Z,96.08
2019-02-28T17:45:21.132Z,90.57
2019-02-28T17:47:56.291Z,90.60
2019-02-28T17:50:31.325Z,92.30
2019-02-28T17:53:07.093Z,91.63
2019-02-28T17:55:42.265Z,87.67
2019-02-28T17:58:17.444Z,92.00
2019-02-28T18:00:53.605Z,95.00
2019-02-28T18:03:28.957Z,92.55
2019-02-28T18:06:04.717Z,94.05
2019-02-28T18:08:39.539Z,90.65
2019-02-28T18:11:14.131Z,91.15
2019-02-28T18:13:52.112Z,90.42
2019-02-28T18:16:25.579Z,89.83
2019-02-28T18:19:00.003Z,91.97
2019-02-28T18:21:37.587Z,92.82
2019-02-28T18:24:10.529Z,90.38
2019-02-28T18:26:45.343Z,92.88
2019-02-28T18:29:20.536Z,95.32
2019-02-28T18:31:53.900Z,94.17
2019-02-28T18:34:26.879Z,94.32
2019-02-28T18:36:59.681Z,96.82
2019-02-28T18:39:31.971Z,91.95
2019-02-28T18:42:04.390Z,98.22
2019-02-28T18:44:37.471Z,96.85
2019-02-28T18:47:10.461Z,97.45
2019-02-28T18:49:42.910Z,95.55
2019-02-28T18:52:15.627Z,98.00
2019-02-28T18:54:48.280Z,96.78
2019-02-28T18:57:20.733Z,97.97
2019-02-28T18:59:54.679Z,101.38
2019-02-28T19:02:27.215Z,104.32
2019-02-28T19:05:00.046Z,99.58
2019-02-28T19:07:32.571Z,99.47
2019-02-28T19:10:06.302Z,102.40
2019-02-28T19:12:38.940Z,101.80
2019-02-28T19:15:13.567Z,104.85
2019-02-28T19:17:46.960Z,104.80
2019-02-28T19:20:19.808Z,101.78
2019-02-28T19:22:52.329Z,96.17
2019-02-28T19:25:24.750Z,98.25
2019-02-28T19:27:57.291Z,93.40
2019-02-28T19:30:30.010Z,96.37
2019-02-28T19:33:02.643Z,97.15
2019-02-28T19:35:35.160Z,93.50
2019-02-28T19:38:07.784Z,95.32
2019-02-28T19:40:40.306Z,95.30
2019-02-28T19:43:15.960Z,96.57
2019-02-28T19:45:50.656Z,100.78
2019-02-28T19:48:23.435Z,99.85
2019-02-28T19:50:55.847Z,105.90
2019-02-28T19:53:28.439Z,103.25
2019-02-28T19:56:00.860Z,103.97
2019-02-28T19:58:33.448Z,108.40
2019-02-28T20:01:05.966Z,108.03
2019-02-28T20:03:38.282Z,105.00
2019-02-28T20:06:10.604Z,104.55
2019-02-28T20:08:43.347Z,106.35
2019-02-28T20:11:15.993Z,104.07
2019-02-28T20:13:49.151Z,105.45
2019-02-28T20:16:21.686Z,105.27
2019-02-28T20:18:54.025Z,106.47
2019-02-28T20:21:26.670Z,109.05
2019-02-28T20:23:59.035Z,108.35
2019-02-28T20:26:31.543Z,108.47
2019-02-28T20:29:03.965Z,108.70
2019-02-28T20:31:36.684Z,107.80
2019-02-28T20:34:09.095Z,106.97
2019-02-28T20:36:42.204Z,101.22
2019-02-28T20:39:14.959Z,108.22
2019-02-28T20:41:47.714Z,104.47
2019-02-28T20:44:20.140Z,105.27
2019-02-28T20:46:52.863Z,103.40
2019-02-28T20:49:26.629Z,104.70
2019-02-28T20:51:59.158Z,97.95
2019-02-28T20:54:31.449Z,97.62
2019-02-28T20:57:03.936Z,94.95
2019-02-28T20:59:37.396Z,96.02
2019-02-28T21:02:10.146Z,96.60
2019-02-28T21:04:43.255Z,94.10
2019-02-28T21:07:17.438Z,91.60
2019-02-28T21:09:50.129Z,89.87
2019-02-28T21:12:22.791Z,89.90
2019-02-28T21:14:55.894Z,92.97
2019-02-28T21:17:29.571Z,91.00
2019-02-28T21:20:02.416Z,89.85
2019-02-28T21:22:35.707Z,89.77
2019-02-28T21:25:10.519Z,91.02
2019-02-28T21:27:42.922Z,93.17
2019-02-28T21:30:18.106Z,89.15
2019-02-28T21:32:50.684Z,89.67
2019-02-28T21:35:24.163Z,89.80
2019-02-28T21:37:57.703Z,89.77
2019-02-28T21:40:30.513Z,90.45
2019-02-28T21:43:03.314Z,86.92
2019-02-28T21:45:35.702Z,86.80
2019-02-28T21:48:08.608Z,81.55
2019-02-28T21:50:41.826Z,83.62
2019-02-28T21:53:14.923Z,82.88
2019-02-28T21:55:47.494Z,86.65
2019-02-28T21:58:20.054Z,85.72
2019-02-28T22:00:52.670Z,85.22
2019-02-28T22:03:25.035Z,84.15
2019-02-28T22:05:57.660Z,88.37
2019-02-28T22:08:30.586Z,87.65
2019-02-28T22:11:02.931Z,81.72
2019-02-28T22:13:35.571Z,82.92
2019-02-28T22:16:07.922Z,84.07
2019-02-28T22:18:40.671Z,81.20
2019-02-28T22:21:13.355Z,87.53
2019-02-28T22:23:45.790Z,86.17
2019-02-28T22:26:18.240Z,81.82
2019-02-28T22:28:50.975Z,87.42
2019-02-28T22:31:26.691Z,86.25
2019-02-28T22:34:00.383Z,86.63
2019-02-28T22:36:36.504Z,86.10
2019-02-28T22:39:10.866Z,83.92
2019-02-28T22:41:43.326Z,86.30
2019-02-28T22:44:16.001Z,90.65
2019-02-28T22:46:48.567Z,87.30
2019-02-28T22:49:21.278Z,92.10
2019-02-28T22:51:53.562Z,92.20
2019-02-28T22:54:26.146Z,91.05
2019-02-28T22:56:58.489Z,84.77
2019-02-28T22:59:30.957Z,86.15
2019-02-28T23:02:03.464Z,85.83
2019-02-28T23:04:36.280Z,88.25
2019-02-28T23:07:08.704Z,92.12
2019-02-28T23:09:42.759Z,89.70
2019-02-28T23:12:14.881Z,88.35
2019-02-28T23:14:47.346Z,89.32
2019-02-28T23:17:19.987Z,86.65
2019-02-28T23:19:52.514Z,88.33
2019-02-28T23:22:25.283Z,88.10
2019-02-28T23:24:57.678Z,85.85
2019-02-28T23:27:30.414Z,90.22
2019-02-28T23:30:05.013Z,88.17
2019-02-28T23:32:40.023Z,89.77
2019-02-28T23:35:15.085Z,91.00
2019-02-28T23:37:47.665Z,95.30
2019-02-28T23:40:20.310Z,98.92
2019-02-28T23:42:52.950Z,96.78
2019-02-28T23:45:25.511Z,90.38
2019-02-28T23:47:58.253Z,94.70
2019-02-28T23:50:30.557Z,94.77
2019-02-28T23:53:02.987Z,93.82
2019-02-28T23:55:35.354Z,92.72
2019-02-28T23:58:08.155Z,91.40
